sensor_id;sensor_type;location;lat;lon;timestamp;P1;durP1;ratioP1;P2;durP2;ratioP2
67751;SDS011;54551;51.068;5.826;2022-07-18T00:00:33;5.17;;;2.10;;
67751;SDS011;54551;51.068;5.826;2022-07-18T00:02:59;4.57;;;1.80;;
67751;SDS011;54551;51.068;5.826;2022-07-18T00:05:25;3.33;;;2.20;;
67751;SDS011;54551;51.068;5.826;2022-07-18T00:07:51;2.10;;;1.70;;
67751;SDS011;54551;51.068;5.826;2022-07-18T00:10:17;5.90;;;1.83;;
67751;SDS011;54551;51.068;5.826;2022-07-18T00:12:43;4.30;;;2.20;;
67751;SDS011;54551;51.068;5.826;2022-07-18T00:15:09;2.00;;;1.80;;
67751;SDS011;54551;51.068;5.826;2022-07-18T00:17:36;3.20;;;1.90;;
67751;SDS011;54551;51.068;5.826;2022-07-18T00:20:03;4.23;;;1.97;;
67751;SDS011;54551;51.068;5.826;2022-07-18T00:22:32;2.47;;;2.00;;
67751;SDS011;54551;51.068;5.826;2022-07-18T00:24:58;3.57;;;2.20;;
67751;SDS011;54551;51.068;5.826;2022-07-18T00:27:24;2.97;;;1.80;;
67751;SDS011;54551;51.068;5.826;2022-07-18T00:29:50;3.33;;;2.37;;
67751;SDS011;54551;51.068;5.826;2022-07-18T00:32:16;3.13;;;2.10;;
67751;SDS011;54551;51.068;5.826;2022-07-18T00:34:41;3.10;;;2.20;;
67751;SDS011;54551;51.068;5.826;2022-07-18T00:37:07;4.57;;;2.27;;
67751;SDS011;54551;51.068;5.826;2022-07-18T00:39:33;2.33;;;1.63;;
67751;SDS011;54551;51.068;5.826;2022-07-18T00:41:59;2.53;;;2.00;;
67751;SDS011;54551;51.068;5.826;2022-07-18T00:44:26;2.97;;;2.33;;
67751;SDS011;54551;51.068;5.826;2022-07-18T00:46:55;4.93;;;2.37;;
67751;SDS011;54551;51.068;5.826;2022-07-18T00:49:24;4.17;;;2.07;;
67751;SDS011;54551;51.068;5.826;2022-07-18T00:51:51;4.93;;;1.90;;
67751;SDS011;54551;51.068;5.826;2022-07-18T00:54:17;2.60;;;2.00;;
67751;SDS011;54551;51.068;5.826;2022-07-18T00:56:44;2.10;;;1.90;;
67751;SDS011;54551;51.068;5.826;2022-07-18T00:59:10;5.60;;;2.20;;
67751;SDS011;54551;51.068;5.826;2022-07-18T01:01:37;4.43;;;2.30;;
67751;SDS011;54551;51.068;5.826;2022-07-18T01:06:40;2.47;;;1.90;;
67751;SDS011;54551;51.068;5.826;2022-07-18T01:09:07;3.13;;;2.37;;
67751;SDS011;54551;51.068;5.826;2022-07-18T01:11:33;4.37;;;2.13;;
67751;SDS011;54551;51.068;5.826;2022-07-18T01:14:01;4.20;;;2.17;;
67751;SDS011;54551;51.068;5.826;2022-07-18T01:16:28;4.47;;;2.30;;
67751;SDS011;54551;51.068;5.826;2022-07-18T01:18:54;2.50;;;2.27;;
67751;SDS011;54551;51.068;5.826;2022-07-18T01:21:20;5.43;;;2.77;;
67751;SDS011;54551;51.068;5.826;2022-07-18T01:23:46;2.90;;;2.37;;
67751;SDS011;54551;51.068;5.826;2022-07-18T01:26:13;2.70;;;2.30;;
67751;SDS011;54551;51.068;5.826;2022-07-18T01:28:40;4.60;;;3.10;;
67751;SDS011;54551;51.068;5.826;2022-07-18T01:31:06;4.83;;;2.50;;
67751;SDS011;54551;51.068;5.826;2022-07-18T01:33:33;5.93;;;2.77;;
67751;SDS011;54551;51.068;5.826;2022-07-18T01:35:59;3.97;;;2.27;;
67751;SDS011;54551;51.068;5.826;2022-07-18T01:38:29;4.53;;;2.40;;
67751;SDS011;54551;51.068;5.826;2022-07-18T01:40:56;6.47;;;2.80;;
67751;SDS011;54551;51.068;5.826;2022-07-18T01:43:23;4.67;;;2.77;;
67751;SDS011;54551;51.068;5.826;2022-07-18T01:45:49;3.87;;;2.63;;
67751;SDS011;54551;51.068;5.826;2022-07-18T01:48:15;4.30;;;2.90;;
67751;SDS011;54551;51.068;5.826;2022-07-18T01:50:42;4.53;;;3.00;;
67751;SDS011;54551;51.068;5.826;2022-07-18T01:53:08;4.13;;;2.67;;
67751;SDS011;54551;51.068;5.826;2022-07-18T01:55:33;3.37;;;2.80;;
67751;SDS011;54551;51.068;5.826;2022-07-18T01:57:59;4.20;;;3.00;;
67751;SDS011;54551;51.068;5.826;2022-07-18T02:00:25;3.30;;;2.37;;
67751;SDS011;54551;51.068;5.826;2022-07-18T02:02:51;3.53;;;2.57;;
67751;SDS011;54551;51.068;5.826;2022-07-18T02:05:17;3.47;;;2.83;;
67751;SDS011;54551;51.068;5.826;2022-07-18T02:07:43;3.60;;;2.73;;
67751;SDS011;54551;51.068;5.826;2022-07-18T02:10:10;4.30;;;3.00;;
67751;SDS011;54551;51.068;5.826;2022-07-18T02:12:41;3.63;;;2.60;;
67751;SDS011;54551;51.068;5.826;2022-07-18T02:15:09;4.37;;;2.60;;
67751;SDS011;54551;51.068;5.826;2022-07-18T02:17:37;3.93;;;2.70;;
67751;SDS011;54551;51.068;5.826;2022-07-18T02:20:04;4.03;;;2.93;;
67751;SDS011;54551;51.068;5.826;2022-07-18T02:22:31;2.67;;;2.47;;
67751;SDS011;54551;51.068;5.826;2022-07-18T02:24:57;4.40;;;3.03;;
67751;SDS011;54551;51.068;5.826;2022-07-18T02:27:23;4.53;;;2.80;;
67751;SDS011;54551;51.068;5.826;2022-07-18T02:29:49;3.57;;;2.67;;
67751;SDS011;54551;51.068;5.826;2022-07-18T02:32:15;8.30;;;2.70;;
67751;SDS011;54551;51.068;5.826;2022-07-18T02:34:41;3.73;;;2.73;;
67751;SDS011;54551;51.068;5.826;2022-07-18T02:37:08;2.80;;;2.33;;
67751;SDS011;54551;51.068;5.826;2022-07-18T02:39:33;4.47;;;2.67;;
67751;SDS011;54551;51.068;5.826;2022-07-18T02:42:00;4.70;;;2.87;;
67751;SDS011;54551;51.068;5.826;2022-07-18T02:44:26;4.07;;;2.80;;
67751;SDS011;54551;51.068;5.826;2022-07-18T02:46:52;6.43;;;2.90;;
67751;SDS011;54551;51.068;5.826;2022-07-18T02:49:17;7.43;;;2.87;;
67751;SDS011;54551;51.068;5.826;2022-07-18T02:51:57;5.50;;;2.43;;
67751;SDS011;54551;51.068;5.826;2022-07-18T02:54:26;4.73;;;2.73;;
67751;SDS011;54551;51.068;5.826;2022-07-18T02:56:54;4.23;;;2.70;;
67751;SDS011;54551;51.068;5.826;2022-07-18T02:59:20;4.17;;;2.70;;
67751;SDS011;54551;51.068;5.826;2022-07-18T03:01:46;2.70;;;2.50;;
67751;SDS011;54551;51.068;5.826;2022-07-18T03:04:14;6.70;;;3.03;;
67751;SDS011;54551;51.068;5.826;2022-07-18T03:06:40;5.07;;;2.80;;
67751;SDS011;54551;51.068;5.826;2022-07-18T03:09:06;6.30;;;2.53;;
67751;SDS011;54551;51.068;5.826;2022-07-18T03:11:33;3.17;;;2.50;;
67751;SDS011;54551;51.068;5.826;2022-07-18T03:13:59;4.17;;;2.60;;
67751;SDS011;54551;51.068;5.826;2022-07-18T03:16:25;3.77;;;2.60;;
67751;SDS011;54551;51.068;5.826;2022-07-18T03:18:51;3.03;;;2.30;;
67751;SDS011;54551;51.068;5.826;2022-07-18T03:21:17;3.53;;;2.47;;
67751;SDS011;54551;51.068;5.826;2022-07-18T03:23:43;3.97;;;2.70;;
67751;SDS011;54551;51.068;5.826;2022-07-18T03:26:08;6.43;;;3.30;;
67751;SDS011;54551;51.068;5.826;2022-07-18T03:28:34;3.93;;;2.87;;
67751;SDS011;54551;51.068;5.826;2022-07-18T03:31:00;5.73;;;3.17;;
67751;SDS011;54551;51.068;5.826;2022-07-18T03:33:26;3.93;;;2.70;;
67751;SDS011;54551;51.068;5.826;2022-07-18T03:35:52;5.03;;;2.90;;
67751;SDS011;54551;51.068;5.826;2022-07-18T03:38:18;4.07;;;2.90;;
67751;SDS011;54551;51.068;5.826;2022-07-18T03:40:44;6.93;;;3.03;;
67751;SDS011;54551;51.068;5.826;2022-07-18T03:43:10;8.40;;;3.30;;
67751;SDS011;54551;51.068;5.826;2022-07-18T03:45:37;3.47;;;2.87;;
67751;SDS011;54551;51.068;5.826;2022-07-18T03:48:03;3.97;;;3.50;;
67751;SDS011;54551;51.068;5.826;2022-07-18T03:50:29;5.63;;;4.20;;
67751;SDS011;54551;51.068;5.826;2022-07-18T03:52:55;7.50;;;4.10;;
67751;SDS011;54551;51.068;5.826;2022-07-18T03:55:22;6.53;;;4.13;;
67751;SDS011;54551;51.068;5.826;2022-07-18T03:57:48;4.93;;;3.47;;
67751;SDS011;54551;51.068;5.826;2022-07-18T04:00:14;4.67;;;2.80;;
67751;SDS011;54551;51.068;5.826;2022-07-18T04:02:41;3.60;;;2.20;;
67751;SDS011;54551;51.068;5.826;2022-07-18T04:05:11;3.60;;;2.40;;
67751;SDS011;54551;51.068;5.826;2022-07-18T04:07:38;2.87;;;2.43;;
67751;SDS011;54551;51.068;5.826;2022-07-18T04:10:05;6.23;;;3.60;;
67751;SDS011;54551;51.068;5.826;2022-07-18T04:12:32;8.33;;;3.23;;
67751;SDS011;54551;51.068;5.826;2022-07-18T04:14:59;4.77;;;3.57;;
67751;SDS011;54551;51.068;5.826;2022-07-18T04:17:25;6.70;;;3.73;;
67751;SDS011;54551;51.068;5.826;2022-07-18T04:19:51;5.83;;;4.53;;
67751;SDS011;54551;51.068;5.826;2022-07-18T04:22:18;7.10;;;4.00;;
67751;SDS011;54551;51.068;5.826;2022-07-18T04:24:44;8.90;;;3.93;;
67751;SDS011;54551;51.068;5.826;2022-07-18T04:27:10;5.67;;;3.93;;
67751;SDS011;54551;51.068;5.826;2022-07-18T04:29:35;10.53;;;4.43;;
67751;SDS011;54551;51.068;5.826;2022-07-18T04:32:02;9.10;;;3.83;;
67751;SDS011;54551;51.068;5.826;2022-07-18T04:34:29;5.27;;;4.20;;
67751;SDS011;54551;51.068;5.826;2022-07-18T04:36:55;6.63;;;4.47;;
67751;SDS011;54551;51.068;5.826;2022-07-18T04:39:20;5.30;;;4.07;;
67751;SDS011;54551;51.068;5.826;2022-07-18T04:41:46;5.97;;;4.07;;
67751;SDS011;54551;51.068;5.826;2022-07-18T04:44:12;6.07;;;4.20;;
67751;SDS011;54551;51.068;5.826;2022-07-18T04:46:38;5.80;;;4.03;;
67751;SDS011;54551;51.068;5.826;2022-07-18T04:49:04;11.03;;;5.00;;
67751;SDS011;54551;51.068;5.826;2022-07-18T04:51:30;5.13;;;4.27;;
67751;SDS011;54551;51.068;5.826;2022-07-18T04:53:57;6.63;;;4.23;;
67751;SDS011;54551;51.068;5.826;2022-07-18T04:56:23;7.00;;;4.53;;
67751;SDS011;54551;51.068;5.826;2022-07-18T04:58:49;8.17;;;3.80;;
67751;SDS011;54551;51.068;5.826;2022-07-18T05:01:15;7.50;;;4.43;;
67751;SDS011;54551;51.068;5.826;2022-07-18T05:03:41;6.17;;;3.70;;
67751;SDS011;54551;51.068;5.826;2022-07-18T05:06:09;5.80;;;3.80;;
67751;SDS011;54551;51.068;5.826;2022-07-18T05:08:35;6.33;;;3.90;;
67751;SDS011;54551;51.068;5.826;2022-07-18T05:11:01;6.80;;;4.00;;
67751;SDS011;54551;51.068;5.826;2022-07-18T05:13:27;7.57;;;4.00;;
67751;SDS011;54551;51.068;5.826;2022-07-18T05:15:53;4.97;;;3.50;;
67751;SDS011;54551;51.068;5.826;2022-07-18T05:18:19;5.67;;;3.57;;
67751;SDS011;54551;51.068;5.826;2022-07-18T05:20:44;4.10;;;3.33;;
67751;SDS011;54551;51.068;5.826;2022-07-18T05:23:13;5.80;;;4.10;;
67751;SDS011;54551;51.068;5.826;2022-07-18T05:25:39;4.43;;;3.17;;
67751;SDS011;54551;51.068;5.826;2022-07-18T05:28:05;5.50;;;3.73;;
67751;SDS011;54551;51.068;5.826;2022-07-18T05:30:31;7.43;;;3.80;;
67751;SDS011;54551;51.068;5.826;2022-07-18T05:32:57;6.30;;;4.10;;
67751;SDS011;54551;51.068;5.826;2022-07-18T05:35:23;4.43;;;3.63;;
67751;SDS011;54551;51.068;5.826;2022-07-18T05:37:49;4.50;;;3.83;;
67751;SDS011;54551;51.068;5.826;2022-07-18T05:40:15;5.23;;;3.30;;
67751;SDS011;54551;51.068;5.826;2022-07-18T05:42:41;4.87;;;3.30;;
67751;SDS011;54551;51.068;5.826;2022-07-18T05:45:08;5.03;;;3.83;;
67751;SDS011;54551;51.068;5.826;2022-07-18T05:47:34;5.87;;;4.13;;
67751;SDS011;54551;51.068;5.826;2022-07-18T05:50:00;4.73;;;4.00;;
67751;SDS011;54551;51.068;5.826;2022-07-18T05:52:27;6.50;;;4.40;;
67751;SDS011;54551;51.068;5.826;2022-07-18T05:54:53;10.07;;;5.40;;
67751;SDS011;54551;51.068;5.826;2022-07-18T05:57:19;12.33;;;4.30;;
67751;SDS011;54551;51.068;5.826;2022-07-18T05:59:45;6.87;;;4.30;;
67751;SDS011;54551;51.068;5.826;2022-07-18T06:02:11;8.17;;;4.50;;
67751;SDS011;54551;51.068;5.826;2022-07-18T06:04:37;6.73;;;3.83;;
67751;SDS011;54551;51.068;5.826;2022-07-18T06:07:03;5.97;;;4.17;;
67751;SDS011;54551;51.068;5.826;2022-07-18T06:09:29;7.07;;;3.87;;
67751;SDS011;54551;51.068;5.826;2022-07-18T06:11:57;4.47;;;3.67;;
67751;SDS011;54551;51.068;5.826;2022-07-18T06:14:26;5.07;;;3.37;;
67751;SDS011;54551;51.068;5.826;2022-07-18T06:16:52;6.13;;;3.80;;
67751;SDS011;54551;51.068;5.826;2022-07-18T06:19:18;7.63;;;3.73;;
67751;SDS011;54551;51.068;5.826;2022-07-18T06:21:44;8.63;;;4.33;;
67751;SDS011;54551;51.068;5.826;2022-07-18T06:24:10;10.87;;;4.93;;
67751;SDS011;54551;51.068;5.826;2022-07-18T06:26:36;6.97;;;4.33;;
67751;SDS011;54551;51.068;5.826;2022-07-18T06:29:02;7.53;;;4.70;;
67751;SDS011;54551;51.068;5.826;2022-07-18T06:31:28;9.63;;;4.47;;
67751;SDS011;54551;51.068;5.826;2022-07-18T06:33:54;8.10;;;4.90;;
67751;SDS011;54551;51.068;5.826;2022-07-18T06:36:20;7.23;;;4.13;;
67751;SDS011;54551;51.068;5.826;2022-07-18T06:38:49;8.40;;;5.10;;
67751;SDS011;54551;51.068;5.826;2022-07-18T06:41:16;9.30;;;5.17;;
67751;SDS011;54551;51.068;5.826;2022-07-18T06:43:42;9.20;;;4.90;;
67751;SDS011;54551;51.068;5.826;2022-07-18T06:46:08;5.97;;;3.57;;
67751;SDS011;54551;51.068;5.826;2022-07-18T06:48:35;7.33;;;4.00;;
67751;SDS011;54551;51.068;5.826;2022-07-18T06:51:04;7.50;;;4.53;;
67751;SDS011;54551;51.068;5.826;2022-07-18T06:53:31;8.70;;;4.03;;
67751;SDS011;54551;51.068;5.826;2022-07-18T06:55:57;7.63;;;4.03;;
67751;SDS011;54551;51.068;5.826;2022-07-18T06:58:24;5.93;;;3.53;;
67751;SDS011;54551;51.068;5.826;2022-07-18T07:00:50;6.63;;;3.47;;
67751;SDS011;54551;51.068;5.826;2022-07-18T07:03:17;5.67;;;3.10;;
67751;SDS011;54551;51.068;5.826;2022-07-18T07:05:42;3.87;;;2.90;;
67751;SDS011;54551;51.068;5.826;2022-07-18T07:08:08;7.70;;;3.07;;
67751;SDS011;54551;51.068;5.826;2022-07-18T07:10:34;3.83;;;2.63;;
67751;SDS011;54551;51.068;5.826;2022-07-18T07:13:00;5.60;;;2.57;;
67751;SDS011;54551;51.068;5.826;2022-07-18T07:15:26;6.73;;;2.73;;
67751;SDS011;54551;51.068;5.826;2022-07-18T07:17:52;4.93;;;2.67;;
67751;SDS011;54551;51.068;5.826;2022-07-18T07:20:18;6.60;;;3.20;;
67751;SDS011;54551;51.068;5.826;2022-07-18T07:22:56;4.73;;;2.43;;
67751;SDS011;54551;51.068;5.826;2022-07-18T07:25:23;4.83;;;2.53;;
67751;SDS011;54551;51.068;5.826;2022-07-18T07:27:50;3.50;;;2.57;;
67751;SDS011;54551;51.068;5.826;2022-07-18T07:30:19;6.00;;;2.73;;
67751;SDS011;54551;51.068;5.826;2022-07-18T07:32:46;3.70;;;2.40;;
67751;SDS011;54551;51.068;5.826;2022-07-18T07:35:14;3.33;;;2.40;;
67751;SDS011;54551;51.068;5.826;2022-07-18T07:37:42;6.37;;;2.43;;
67751;SDS011;54551;51.068;5.826;2022-07-18T07:40:14;3.67;;;2.47;;
67751;SDS011;54551;51.068;5.826;2022-07-18T07:42:41;8.77;;;3.00;;
67751;SDS011;54551;51.068;5.826;2022-07-18T07:45:07;4.73;;;2.23;;
67751;SDS011;54551;51.068;5.826;2022-07-18T07:47:34;4.47;;;2.53;;
67751;SDS011;54551;51.068;5.826;2022-07-18T07:50:01;6.53;;;2.43;;
67751;SDS011;54551;51.068;5.826;2022-07-18T07:52:28;3.77;;;2.13;;
67751;SDS011;54551;51.068;5.826;2022-07-18T07:54:55;4.03;;;2.40;;
67751;SDS011;54551;51.068;5.826;2022-07-18T07:57:21;4.50;;;2.50;;
67751;SDS011;54551;51.068;5.826;2022-07-18T07:59:47;4.43;;;2.72;;
67751;SDS011;54551;51.068;5.826;2022-07-18T08:02:13;3.63;;;2.40;;
67751;SDS011;54551;51.068;5.826;2022-07-18T08:04:40;5.33;;;2.30;;
67751;SDS011;54551;51.068;5.826;2022-07-18T08:07:06;6.57;;;2.33;;
67751;SDS011;54551;51.068;5.826;2022-07-18T08:09:32;7.63;;;2.78;;
67751;SDS011;54551;51.068;5.826;2022-07-18T08:11:58;4.72;;;2.10;;
67751;SDS011;54551;51.068;5.826;2022-07-18T08:14:24;4.00;;;2.10;;
67751;SDS011;54551;51.068;5.826;2022-07-18T08:16:50;7.32;;;2.38;;
67751;SDS011;54551;51.068;5.826;2022-07-18T08:19:16;2.85;;;2.10;;
67751;SDS011;54551;51.068;5.826;2022-07-18T08:21:42;3.05;;;2.17;;
67751;SDS011;54551;51.068;5.826;2022-07-18T08:24:08;4.00;;;2.13;;
67751;SDS011;54551;51.068;5.826;2022-07-18T08:26:34;3.92;;;1.85;;
67751;SDS011;54551;51.068;5.826;2022-07-18T08:29:04;6.22;;;1.90;;
67751;SDS011;54551;51.068;5.826;2022-07-18T08:31:33;5.25;;;1.88;;
67751;SDS011;54551;51.068;5.826;2022-07-18T08:33:59;3.50;;;2.15;;
67751;SDS011;54551;51.068;5.826;2022-07-18T08:36:25;3.45;;;2.15;;
67751;SDS011;54551;51.068;5.826;2022-07-18T08:38:51;3.50;;;1.90;;
67751;SDS011;54551;51.068;5.826;2022-07-18T08:41:17;3.25;;;1.70;;
67751;SDS011;54551;51.068;5.826;2022-07-18T08:43:44;7.20;;;2.22;;
67751;SDS011;54551;51.068;5.826;2022-07-18T08:46:10;3.33;;;1.80;;
67751;SDS011;54551;51.068;5.826;2022-07-18T08:48:38;4.75;;;2.00;;
67751;SDS011;54551;51.068;5.826;2022-07-18T08:51:05;3.80;;;2.25;;
67751;SDS011;54551;51.068;5.826;2022-07-18T08:53:31;3.83;;;2.10;;
67751;SDS011;54551;51.068;5.826;2022-07-18T08:55:59;5.22;;;1.88;;
67751;SDS011;54551;51.068;5.826;2022-07-18T08:58:25;5.05;;;2.30;;
67751;SDS011;54551;51.068;5.826;2022-07-18T09:00:51;4.97;;;2.17;;
67751;SDS011;54551;51.068;5.826;2022-07-18T09:03:17;3.13;;;2.20;;
67751;SDS011;54551;51.068;5.826;2022-07-18T09:05:43;2.65;;;2.03;;
67751;SDS011;54551;51.068;5.826;2022-07-18T09:08:09;4.35;;;2.60;;
67751;SDS011;54551;51.068;5.826;2022-07-18T09:10:40;3.88;;;2.00;;
67751;SDS011;54551;51.068;5.826;2022-07-18T09:13:18;5.25;;;2.10;;
67751;SDS011;54551;51.068;5.826;2022-07-18T09:18:27;7.13;;;2.28;;
67751;SDS011;54551;51.068;5.826;2022-07-18T09:20:57;4.57;;;2.42;;
67751;SDS011;54551;51.068;5.826;2022-07-18T09:23:29;5.05;;;2.40;;
67751;SDS011;54551;51.068;5.826;2022-07-18T09:25:56;10.30;;;2.90;;
67751;SDS011;54551;51.068;5.826;2022-07-18T09:28:25;6.28;;;2.45;;
67751;SDS011;54551;51.068;5.826;2022-07-18T09:30:54;4.15;;;2.80;;
67751;SDS011;54551;51.068;5.826;2022-07-18T09:33:20;2.95;;;2.20;;
67751;SDS011;54551;51.068;5.826;2022-07-18T09:35:48;4.38;;;2.70;;
67751;SDS011;54551;51.068;5.826;2022-07-18T09:38:19;5.05;;;2.78;;
67751;SDS011;54551;51.068;5.826;2022-07-18T09:40:47;4.70;;;2.83;;
67751;SDS011;54551;51.068;5.826;2022-07-18T09:43:21;5.63;;;2.58;;
67751;SDS011;54551;51.068;5.826;2022-07-18T09:45:49;4.50;;;2.60;;
67751;SDS011;54551;51.068;5.826;2022-07-18T09:48:19;6.50;;;2.45;;
67751;SDS011;54551;51.068;5.826;2022-07-18T09:50:53;5.88;;;2.40;;
67751;SDS011;54551;51.068;5.826;2022-07-18T09:56:10;4.47;;;2.88;;
67751;SDS011;54551;51.068;5.826;2022-07-18T09:58:38;3.22;;;2.33;;
67751;SDS011;54551;51.068;5.826;2022-07-18T10:01:07;4.18;;;2.40;;
67751;SDS011;54551;51.068;5.826;2022-07-18T10:03:34;3.67;;;2.42;;
67751;SDS011;54551;51.068;5.826;2022-07-18T10:06:01;3.65;;;2.50;;
67751;SDS011;54551;51.068;5.826;2022-07-18T10:08:29;5.03;;;2.47;;
67751;SDS011;54551;51.068;5.826;2022-07-18T10:10:57;4.50;;;2.40;;
67751;SDS011;54551;51.068;5.826;2022-07-18T10:13:24;3.58;;;2.00;;
67751;SDS011;54551;51.068;5.826;2022-07-18T10:15:51;7.57;;;2.10;;
67751;SDS011;54551;51.068;5.826;2022-07-18T10:18:19;3.22;;;2.03;;
67751;SDS011;54551;51.068;5.826;2022-07-18T10:39:41;2.22;;;1.83;;
67751;SDS011;54551;51.068;5.826;2022-07-18T10:44:38;1.92;;;1.70;;
67751;SDS011;54551;51.068;5.826;2022-07-18T10:47:09;1.67;;;1.35;;
67751;SDS011;54551;51.068;5.826;2022-07-18T10:53:12;3.00;;;1.60;;
67751;SDS011;54551;51.068;5.826;2022-07-18T11:00:17;1.45;;;1.35;;
67751;SDS011;54551;51.068;5.826;2022-07-18T11:16:00;2.80;;;1.73;;
67751;SDS011;54551;51.068;5.826;2022-07-18T11:24:08;3.50;;;1.50;;
67751;SDS011;54551;51.068;5.826;2022-07-18T11:26:37;1.70;;;1.48;;
67751;SDS011;54551;51.068;5.826;2022-07-18T11:29:09;1.60;;;1.50;;
67751;SDS011;54551;51.068;5.826;2022-07-18T11:31:46;1.83;;;1.55;;
67751;SDS011;54551;51.068;5.826;2022-07-18T11:34:16;1.75;;;1.55;;
67751;SDS011;54551;51.068;5.826;2022-07-18T11:36:44;2.90;;;1.80;;
67751;SDS011;54551;51.068;5.826;2022-07-18T11:39:11;1.77;;;1.40;;
67751;SDS011;54551;51.068;5.826;2022-07-18T11:41:39;2.40;;;1.60;;
67751;SDS011;54551;51.068;5.826;2022-07-18T11:44:15;2.85;;;1.50;;
67751;SDS011;54551;51.068;5.826;2022-07-18T11:46:43;1.92;;;1.40;;
67751;SDS011;54551;51.068;5.826;2022-07-18T11:49:09;2.30;;;1.60;;
67751;SDS011;54551;51.068;5.826;2022-07-18T11:51:37;1.90;;;1.70;;
67751;SDS011;54551;51.068;5.826;2022-07-18T11:54:05;2.03;;;1.60;;
67751;SDS011;54551;51.068;5.826;2022-07-18T11:56:32;1.75;;;1.40;;
67751;SDS011;54551;51.068;5.826;2022-07-18T11:58:58;1.85;;;1.73;;
67751;SDS011;54551;51.068;5.826;2022-07-18T12:01:30;1.95;;;1.40;;
67751;SDS011;54551;51.068;5.826;2022-07-18T12:03:57;1.60;;;1.50;;
67751;SDS011;54551;51.068;5.826;2022-07-18T12:06:23;2.80;;;1.73;;
67751;SDS011;54551;51.068;5.826;2022-07-18T12:08:50;1.90;;;1.70;;
67751;SDS011;54551;51.068;5.826;2022-07-18T12:19:07;1.60;;;1.50;;
67751;SDS011;54551;51.068;5.826;2022-07-18T12:24:25;1.50;;;1.40;;
67751;SDS011;54551;51.068;5.826;2022-07-18T12:29:55;1.98;;;1.35;;
67751;SDS011;54551;51.068;5.826;2022-07-18T12:43:32;2.30;;;1.77;;
67751;SDS011;54551;51.068;5.826;2022-07-18T12:46:02;2.35;;;1.60;;
67751;SDS011;54551;51.068;5.826;2022-07-18T12:48:31;3.13;;;1.80;;
67751;SDS011;54551;51.068;5.826;2022-07-18T12:51:06;1.85;;;1.58;;
67751;SDS011;54551;51.068;5.826;2022-07-18T12:53:33;1.75;;;1.45;;
67751;SDS011;54551;51.068;5.826;2022-07-18T12:56:00;1.80;;;1.70;;
67751;SDS011;54551;51.068;5.826;2022-07-18T12:58:27;2.15;;;1.60;;
67751;SDS011;54551;51.068;5.826;2022-07-18T13:00:53;1.95;;;1.52;;
67751;SDS011;54551;51.068;5.826;2022-07-18T13:03:21;1.80;;;1.70;;
67751;SDS011;54551;51.068;5.826;2022-07-18T13:05:47;3.22;;;1.67;;
67751;SDS011;54551;51.068;5.826;2022-07-18T13:08:13;4.38;;;2.05;;
67751;SDS011;54551;51.068;5.826;2022-07-18T13:10:39;1.88;;;1.50;;
67751;SDS011;54551;51.068;5.826;2022-07-18T13:13:07;1.60;;;1.50;;
67751;SDS011;54551;51.068;5.826;2022-07-18T13:15:34;2.97;;;1.40;;
67751;SDS011;54551;51.068;5.826;2022-07-18T13:18:01;2.05;;;1.60;;
67751;SDS011;54551;51.068;5.826;2022-07-18T13:20:28;1.80;;;1.70;;
67751;SDS011;54551;51.068;5.826;2022-07-18T13:22:55;1.63;;;1.33;;
67751;SDS011;54551;51.068;5.826;2022-07-18T13:25:22;3.00;;;1.70;;
67751;SDS011;54551;51.068;5.826;2022-07-18T13:27:48;1.80;;;1.38;;
67751;SDS011;54551;51.068;5.826;2022-07-18T13:30:14;1.70;;;1.60;;
67751;SDS011;54551;51.068;5.826;2022-07-18T13:32:40;1.60;;;1.50;;
67751;SDS011;54551;51.068;5.826;2022-07-18T13:35:10;2.50;;;1.40;;
67751;SDS011;54551;51.068;5.826;2022-07-18T13:37:37;1.60;;;1.50;;
67751;SDS011;54551;51.068;5.826;2022-07-18T13:40:03;1.90;;;1.65;;
67751;SDS011;54551;51.068;5.826;2022-07-18T13:42:31;1.85;;;1.75;;
67751;SDS011;54551;51.068;5.826;2022-07-18T13:44:58;1.50;;;1.40;;
67751;SDS011;54551;51.068;5.826;2022-07-18T13:47:24;1.50;;;1.40;;
67751;SDS011;54551;51.068;5.826;2022-07-18T13:49:50;1.60;;;1.50;;
67751;SDS011;54551;51.068;5.826;2022-07-18T13:52:16;2.65;;;1.48;;
67751;SDS011;54551;51.068;5.826;2022-07-18T13:54:42;6.60;;;2.65;;
67751;SDS011;54551;51.068;5.826;2022-07-18T13:57:08;2.08;;;1.80;;
67751;SDS011;54551;51.068;5.826;2022-07-18T13:59:34;2.35;;;1.30;;
67751;SDS011;54551;51.068;5.826;2022-07-18T14:02:00;1.65;;;1.52;;
67751;SDS011;54551;51.068;5.826;2022-07-18T14:04:26;2.25;;;1.42;;
67751;SDS011;54551;51.068;5.826;2022-07-18T14:06:51;1.40;;;1.30;;
67751;SDS011;54551;51.068;5.826;2022-07-18T14:09:17;1.63;;;1.48;;
67751;SDS011;54551;51.068;5.826;2022-07-18T14:11:43;1.50;;;1.40;;
67751;SDS011;54551;51.068;5.826;2022-07-18T14:14:09;1.75;;;1.40;;
67751;SDS011;54551;51.068;5.826;2022-07-18T14:16:35;3.80;;;1.40;;
67751;SDS011;54551;51.068;5.826;2022-07-18T14:19:03;3.40;;;1.73;;
67751;SDS011;54551;51.068;5.826;2022-07-18T14:21:29;1.75;;;1.65;;
67751;SDS011;54551;51.068;5.826;2022-07-18T14:23:55;1.73;;;1.63;;
67751;SDS011;54551;51.068;5.826;2022-07-18T14:26:22;1.70;;;1.60;;
67751;SDS011;54551;51.068;5.826;2022-07-18T14:28:49;1.65;;;1.55;;
67751;SDS011;54551;51.068;5.826;2022-07-18T14:31:15;2.10;;;1.70;;
67751;SDS011;54551;51.068;5.826;2022-07-18T14:33:40;1.77;;;1.63;;
67751;SDS011;54551;51.068;5.826;2022-07-18T14:36:06;2.63;;;1.60;;
67751;SDS011;54551;51.068;5.826;2022-07-18T14:38:32;2.10;;;1.70;;
67751;SDS011;54551;51.068;5.826;2022-07-18T14:40:58;1.88;;;1.55;;
67751;SDS011;54551;51.068;5.826;2022-07-18T14:43:24;1.40;;;1.30;;
67751;SDS011;54551;51.068;5.826;2022-07-18T14:45:50;1.95;;;1.55;;
67751;SDS011;54551;51.068;5.826;2022-07-18T14:48:17;1.98;;;1.75;;
67751;SDS011;54551;51.068;5.826;2022-07-18T14:50:43;1.40;;;1.30;;
67751;SDS011;54551;51.068;5.826;2022-07-18T14:53:09;2.35;;;1.60;;
67751;SDS011;54551;51.068;5.826;2022-07-18T14:55:35;1.75;;;1.50;;
67751;SDS011;54551;51.068;5.826;2022-07-18T14:58:01;3.60;;;1.63;;
67751;SDS011;54551;51.068;5.826;2022-07-18T15:00:28;2.78;;;1.40;;
67751;SDS011;54551;51.068;5.826;2022-07-18T15:02:54;1.90;;;1.77;;
67751;SDS011;54551;51.068;5.826;2022-07-18T15:05:20;1.52;;;1.42;;
67751;SDS011;54551;51.068;5.826;2022-07-18T15:07:46;1.50;;;1.33;;
67751;SDS011;54551;51.068;5.826;2022-07-18T15:10:12;1.85;;;1.75;;
67751;SDS011;54551;51.068;5.826;2022-07-18T15:12:39;1.75;;;1.65;;
67751;SDS011;54551;51.068;5.826;2022-07-18T15:15:06;2.03;;;1.73;;
67751;SDS011;54551;51.068;5.826;2022-07-18T15:17:33;1.90;;;1.75;;
67751;SDS011;54551;51.068;5.826;2022-07-18T15:19:59;3.08;;;1.88;;
67751;SDS011;54551;51.068;5.826;2022-07-18T15:22:25;1.55;;;1.45;;
67751;SDS011;54551;51.068;5.826;2022-07-18T15:24:52;1.63;;;1.35;;
67751;SDS011;54551;51.068;5.826;2022-07-18T15:27:18;1.52;;;1.42;;
67751;SDS011;54551;51.068;5.826;2022-07-18T15:29:44;4.93;;;1.63;;
67751;SDS011;54551;51.068;5.826;2022-07-18T15:32:09;1.52;;;1.42;;
67751;SDS011;54551;51.068;5.826;2022-07-18T15:34:36;1.33;;;1.23;;
67751;SDS011;54551;51.068;5.826;2022-07-18T15:37:03;1.35;;;1.23;;
67751;SDS011;54551;51.068;5.826;2022-07-18T15:39:29;2.92;;;1.40;;
67751;SDS011;54551;51.068;5.826;2022-07-18T15:41:55;2.63;;;1.60;;
67751;SDS011;54551;51.068;5.826;2022-07-18T15:44:21;2.03;;;1.50;;
67751;SDS011;54551;51.068;5.826;2022-07-18T15:46:47;1.48;;;1.38;;
67751;SDS011;54551;51.068;5.826;2022-07-18T15:49:13;1.88;;;1.50;;
67751;SDS011;54551;51.068;5.826;2022-07-18T15:51:39;2.40;;;1.40;;
67751;SDS011;54551;51.068;5.826;2022-07-18T15:54:15;1.42;;;1.33;;
67751;SDS011;54551;51.068;5.826;2022-07-18T15:56:42;1.40;;;1.30;;
67751;SDS011;54551;51.068;5.826;2022-07-18T15:59:08;2.08;;;1.60;;
67751;SDS011;54551;51.068;5.826;2022-07-18T16:01:34;1.50;;;1.40;;
67751;SDS011;54551;51.068;5.826;2022-07-18T16:04:00;3.30;;;1.67;;
67751;SDS011;54551;51.068;5.826;2022-07-18T16:06:25;1.58;;;1.48;;